CCGS Neocaligus — CG7677 — position and weather

sailwx.info

Track history (hours):
 
Tides and Currents Weather Stations Pressure Air Temp Water Temp Dewpoint Dewpoint Depression Visibility Wind Speed Wind Dir Waves Ship Positions

CCGS Neocaligus

Last reported at 2014-Oct-31 22:16 UTC. Time now 2014-Nov-01 06:14 UTC.
Position N 49°00' W 122°51'.

Length 23 m; draft 3.5 m.

Type: Fishing. MMSI: 316001759.

Date/timePositionNaut miles runAvg speedWind from/ knotsBaromVisibWave heightAir tempDewpointWater temp
2014-Oct-31 22:16N 49°00' W 122°51'4 5.9
2014-Oct-31 21:33N 48°60' W 122°58'6 5.6
2014-Oct-31 20:33N 48°59' W 123°06'4 4.0
2014-Oct-31 19:31N 49°01' W 123°11'4 4.4
2014-Oct-31 18:33N 49°03' W 123°16'1 0.9
2014-Oct-31 17:29N 49°02' W 123°16'3 3.6
2014-Oct-31 16:32N 49°05' W 123°19'2 1.5
2014-Oct-31 15:31N 49°07' W 123°19'4 3.9
2014-Oct-31 14:33N 49°08' W 123°13'1 1.4
2014-Oct-31 13:33N 49°07' W 123°11'0 0.0
2014-Oct-31 12:33N 49°07' W 123°11'0 0.0
2014-Oct-31 11:33N 49°07' W 123°11'0 0.0
2014-Oct-31 10:33N 49°07' W 123°11'0 0.0
2014-Oct-31 09:33N 49°07' W 123°11'0 0.0
2014-Oct-31 08:33N 49°07' W 123°11'0 0.0
2014-Oct-31 07:33N 49°07' W 123°11'0 0.0
2014-Oct-31 06:33N 49°07' W 123°11'0 0.0
2014-Oct-31 05:33N 49°07' W 123°11'0 0.0
2014-Oct-31 04:30N 49°07' W 123°11'0 0.0
2014-Oct-31 03:33N 49°07' W 123°11'0 0.0
2014-Oct-31 02:33N 49°07' W 123°11'0 0.1
2014-Oct-31 01:33N 49°07' W 123°12'5 5.3
2014-Oct-31 00:33N 49°06' W 123°19'4 3.4
2014-Oct-30 23:24N 49°02' W 123°16'5 6.5
2014-Oct-30 22:33N 49°07' W 123°18'6 6.0
2014-Oct-30 21:33N 49°13' W 123°18'7 7.2
2014-Oct-30 20:33N 49°20' W 123°14'3 2.6
2014-Oct-30 19:30N 49°23' W 123°16'0 0.0
2014-Oct-30 18:30N 49°23' W 123°16'3 2.8
2014-Oct-30 17:33N 49°20' W 123°16'3 3.1
2014-Oct-30 16:33N 49°17' W 123°14'3 2.7
2014-Oct-30 15:33N 49°20' W 123°13'4 4.2
2014-Oct-30 14:33N 49°17' W 123°09'1 0.7
2014-Oct-30 13:31N 49°16' W 123°08'0 0.0
2014-Oct-30 12:31N 49°16' W 123°08'0 0.0
2014-Oct-30 11:31N 49°16' W 123°08'0 0.0
2014-Oct-30 10:31N 49°16' W 123°08'0 0.0
2014-Oct-30 09:31N 49°16' W 123°08'0 0.0
2014-Oct-30 08:31N 49°16' W 123°08'0 0.0
2014-Oct-30 07:31N 49°16' W 123°08'0 0.0
2014-Oct-30 06:28N 49°16' W 123°08'0 0.0
2014-Oct-30 05:31N 49°16' W 123°08'0 0.0
2014-Oct-30 04:31N 49°16' W 123°08'0 0.0
2014-Oct-30 03:31N 49°16' W 123°08'0 0.0
2014-Oct-30 02:31N 49°16' W 123°08'0 0.0
2014-Oct-30 01:31N 49°16' W 123°08'0 0.0
2014-Oct-30 00:31N 49°16' W 123°08'0 0.0
2014-Oct-29 23:28N 49°16' W 123°08'0 0.0
2014-Oct-29 22:31N 49°16' W 123°08'0 0.0
2014-Oct-29 21:28N 49°16' W 123°08'5 5.1
2014-Oct-29 20:33N 49°20' W 123°13'3 3.2
2014-Oct-29 19:33N 49°18' W 123°15'6 5.3
2014-Oct-29 18:30N 49°12' W 123°18'1 0.6
2014-Oct-29 17:25N 49°12' W 123°18'2 2.3
2014-Oct-29 16:33N 49°10' W 123°17'1 0.8
2014-Oct-29 15:33N 49°09' W 123°18'3 2.9
2014-Oct-29 14:33N 49°08' W 123°14'2 1.5
2014-Oct-29 13:28N 49°07' W 123°11'0 0.0
2014-Oct-29 12:25N 49°07' W 123°11'0 0.0
2014-Oct-29 11:31N 49°07' W 123°11'0 0.0
2014-Oct-29 10:31N 49°07' W 123°11'0 0.0
2014-Oct-29 09:31N 49°07' W 123°11'0 0.0
2014-Oct-29 08:31N 49°07' W 123°11'0 0.0
2014-Oct-29 07:31N 49°07' W 123°11'0 0.0
2014-Oct-29 06:31N 49°07' W 123°11'0 0.0
2014-Oct-29 05:31N 49°07' W 123°11'0 0.0
2014-Oct-29 04:31N 49°07' W 123°11'0 0.0
2014-Oct-29 03:28N 49°07' W 123°11'0 0.0
2014-Oct-29 02:31N 49°07' W 123°11'0 0.0
2014-Oct-29 01:28N 49°07' W 123°11'0 0.0
2014-Oct-29 00:31N 49°07' W 123°11'0 0.0
2014-Oct-28 23:31N 49°07' W 123°11'2 1.8
2014-Oct-28 22:33N 49°08' W 123°14'3 2.8
2014-Oct-28 21:33N 49°09' W 123°18'4 3.5
2014-Oct-28 20:33N 49°13' W 123°18'7 7.4
2014-Oct-28 19:33N 49°19' W 123°11'8 7.6
2014-Oct-28 18:31N 49°18' W 122°59'1 1.1
2014-Oct-28 17:33N 49°18' W 122°58'1 1.1
2014-Oct-28 16:33N 49°18' W 122°56'2 2.1
2014-Oct-28 15:33N 49°20' W 122°54'1 1.4
2014-Oct-28 14:31N 49°20' W 122°57'0 0.0
2014-Oct-28 13:31N 49°20' W 122°57'0 0.0
2014-Oct-28 12:31N 49°20' W 122°57'0 0.0
2014-Oct-28 11:31N 49°20' W 122°57'0 0.0
2014-Oct-28 10:25N 49°20' W 122°57'0 0.0
2014-Oct-28 09:31N 49°20' W 122°57'0 0.0
2014-Oct-28 08:31N 49°20' W 122°57'0 0.0
2014-Oct-28 07:31N 49°20' W 122°57'0 0.0
2014-Oct-28 06:31N 49°20' W 122°57'0 0.0
2014-Oct-28 05:31N 49°20' W 122°57'0 0.0
2014-Oct-28 04:25N 49°20' W 122°57'0 0.0
2014-Oct-28 03:31N 49°20' W 122°57'0 0.0
2014-Oct-28 02:31N 49°20' W 122°57'0 0.0
2014-Oct-28 01:31N 49°20' W 122°57'0 0.0
2014-Oct-28 00:31N 49°20' W 122°57'0 0.0
2014-Oct-27 23:31N 49°20' W 122°57'0 0.0
2014-Oct-27 22:31N 49°20' W 122°57'1 1.4
2014-Oct-27 21:33N 49°20' W 122°55'3 2.5
2014-Oct-27 20:33N 49°18' W 122°56'5 4.5
2014-Oct-27 19:32N 49°18' W 123°03'0 0.0
2014-Oct-27 18:31N 49°18' W 123°03'2 1.9
2014-Oct-27 17:32N 49°17' W 123°06'1 1.5
2014-Oct-27 16:34N 49°18' W 123°05'2 2.0
2014-Oct-27 15:33N 49°19' W 123°08'2 2.1
2014-Oct-27 14:34N 49°17' W 123°08'0 0.4
2014-Oct-27 13:31N 49°16' W 123°08'0 0.0
2014-Oct-27 12:31N 49°16' W 123°08'0 0.0
2014-Oct-27 11:31N 49°16' W 123°08'0 0.0
2014-Oct-27 10:31N 49°16' W 123°08'0 0.0
2014-Oct-27 09:31N 49°16' W 123°08'0 0.0
2014-Oct-27 08:31N 49°16' W 123°08'0 0.0
2014-Oct-27 07:31N 49°16' W 123°08'0 0.0
2014-Oct-27 06:31N 49°16' W 123°08'0 0.0
2014-Oct-27 05:31N 49°16' W 123°08'0 0.0
2014-Oct-27 04:31N 49°16' W 123°08'0 0.0
2014-Oct-27 03:31N 49°16' W 123°08'0 0.0
2014-Oct-27 02:31N 49°16' W 123°08'0 0.0
2014-Oct-27 01:31N 49°16' W 123°08'0 0.0
2014-Oct-27 00:31N 49°16' W 123°08'0 0.0
2014-Oct-26 23:31N 49°16' W 123°08'0 0.0
2014-Oct-26 22:31N 49°16' W 123°08'0 0.4
2014-Oct-26 21:33N 49°17' W 123°08'2 2.3
2014-Oct-26 20:33N 49°17' W 123°05'1 1.5
2014-Oct-26 19:33N 49°18' W 123°07'2 2.4
2014-Oct-26 18:31N 49°20' W 123°10'2 2.0
2014-Oct-26 17:33N 49°18' W 123°10'1 1.1
2014-Oct-26 16:34N 49°17' W 123°11'2 1.8
2014-Oct-26 15:32N 49°16' W 123°08'0 0.0
2014-Oct-26 14:32N 49°16' W 123°08'0 0.0
2014-Oct-26 13:32N 49°16' W 123°08'0 0.0
2014-Oct-26 12:32N 49°16' W 123°08'0 0.0
2014-Oct-26 11:32N 49°16' W 123°08'0 0.0
2014-Oct-26 10:32N 49°16' W 123°08'0 0.0
2014-Oct-26 09:32N 49°16' W 123°08'0 0.0
2014-Oct-26 08:32N 49°16' W 123°08'0 0.0
2014-Oct-26 07:32N 49°16' W 123°08'0 0.0
2014-Oct-26 06:32N 49°16' W 123°08'0 0.0
2014-Oct-26 05:32N 49°16' W 123°08'0 0.0
2014-Oct-26 04:32N 49°16' W 123°08'0 0.0
2014-Oct-26 03:32N 49°16' W 123°08'0 0.0
2014-Oct-26 02:29N 49°16' W 123°08'0 0.0
2014-Oct-26 01:32N 49°16' W 123°08'2 1.8
2014-Oct-26 00:34N 49°18' W 123°10'4 4.1
2014-Oct-25 23:33N 49°17' W 123°16'7 6.9
2014-Oct-25 22:33N 49°16' W 123°27'7 7.2
2014-Oct-25 21:33N 49°15' W 123°37'8 8.3
2014-Oct-25 20:33N 49°13' W 123°50'5 2.3
2014-Oct-25 18:24N 49°13' W 123°57'0 0.0
2014-Oct-25 17:06N 49°13' W 123°57'0 0.0
2014-Oct-25 16:24N 49°13' W 123°57'0 0.0
2014-Oct-25 13:12N 49°13' W 123°57'0 0.0
2014-Oct-25 07:06N 49°13' W 123°57'0 0.0
2014-Oct-25 04:03N 49°13' W 123°57'0 0.0
2014-Oct-25 03:09N 49°13' W 123°57'0 0.0
2014-Oct-25 02:33N 49°13' W 123°57'0 0.0
2014-Oct-25 01:15N 49°13' W 123°57'0 0.0
2014-Oct-25 00:24N 49°13' W 123°57'0 0.0
2014-Oct-24 23:24N 49°13' W 123°57'0 0.0
2014-Oct-24 22:30N 49°13' W 123°57'0 0.0
2014-Oct-24 20:24N 49°13' W 123°57'0 0.0
2014-Oct-24 17:24N 49°13' W 123°57'0 0.0
2014-Oct-24 15:12N 49°13' W 123°57'0 0.0
2014-Oct-24 05:30N 49°13' W 123°57'0 0.0
2014-Oct-24 04:30N 49°13' W 123°57'0 0.0
2014-Oct-24 03:30N 49°13' W 123°57'0 0.0
2014-Oct-24 02:24N 49°13' W 123°57'0 0.0
2014-Oct-24 01:30N 49°13' W 123°57'0 0.0
2014-Oct-24 00:30N 49°13' W 123°57'0 0.0
2014-Oct-23 22:30N 49°13' W 123°57'0 0.0
2014-Oct-23 03:06N 49°13' W 123°57'0 0.0
2014-Oct-23 01:30N 49°13' W 123°57'0 0.0
2014-Oct-23 00:30N 49°13' W 123°57'0 0.0
2014-Oct-22 23:24N 49°13' W 123°57'0 0.0
2014-Oct-22 22:30N 49°13' W 123°57'0 0.0
2014-Oct-22 20:30N 49°13' W 123°57'0 0.0
2014-Oct-22 17:30N 49°13' W 123°57'0 0.0
2014-Oct-22 12:18N 49°13' W 123°57'0 0.0
2014-Oct-22 11:30N 49°13' W 123°57'0 0.0
2014-Oct-22 10:30N 49°13' W 123°57'0 0.0
2014-Oct-22 09:24N 49°13' W 123°57'0 0.0
2014-Oct-22 08:30N 49°13' W 123°57'0 0.0
2014-Oct-22 07:18N 49°13' W 123°57'0 0.0
2014-Oct-22 05:30N 49°13' W 123°57'0 0.0
2014-Oct-22 04:24N 49°13' W 123°57'0 0.0
2014-Oct-22 03:24N 49°13' W 123°57'0 0.0
2014-Oct-22 01:12N 49°13' W 123°57'0 0.0
2014-Oct-21 23:18N 49°13' W 123°57'  
Track history (hours):
 
Tides and Currents Weather Stations Pressure Air Temp Water Temp Dewpoint Dewpoint Depression Visibility Wind Speed Wind Dir Waves Ship Positions

CCGS Neocaligus

Last reported at 2014-Oct-31 22:16 UTC. Time now 2014-Nov-01 06:14 UTC.
Position N 49°00' W 122°51'.

Length 23 m; draft 3.5 m.

Type: Fishing. MMSI: 316001759.

Date/timePositionNaut miles runAvg speedWind from/ knotsBaromVisibWave heightAir tempDewpointWater temp
2014-Oct-31 22:16N 49°00' W 122°51'4 5.9
2014-Oct-31 21:33N 48°60' W 122°58'6 5.6
2014-Oct-31 20:33N 48°59' W 123°06'4 4.0
2014-Oct-31 19:31N 49°01' W 123°11'4 4.4
2014-Oct-31 18:33N 49°03' W 123°16'1 0.9
2014-Oct-31 17:29N 49°02' W 123°16'3 3.6
2014-Oct-31 16:32N 49°05' W 123°19'2 1.5
2014-Oct-31 15:31N 49°07' W 123°19'4 3.9
2014-Oct-31 14:33N 49°08' W 123°13'1 1.4
2014-Oct-31 13:33N 49°07' W 123°11'0 0.0
2014-Oct-31 12:33N 49°07' W 123°11'0 0.0
2014-Oct-31 11:33N 49°07' W 123°11'0 0.0
2014-Oct-31 10:33N 49°07' W 123°11'0 0.0
2014-Oct-31 09:33N 49°07' W 123°11'0 0.0
2014-Oct-31 08:33N 49°07' W 123°11'0 0.0
2014-Oct-31 07:33N 49°07' W 123°11'0 0.0
2014-Oct-31 06:33N 49°07' W 123°11'0 0.0
2014-Oct-31 05:33N 49°07' W 123°11'0 0.0
2014-Oct-31 04:30N 49°07' W 123°11'0 0.0
2014-Oct-31 03:33N 49°07' W 123°11'0 0.0
2014-Oct-31 02:33N 49°07' W 123°11'0 0.1
2014-Oct-31 01:33N 49°07' W 123°12'5 5.3
2014-Oct-31 00:33N 49°06' W 123°19'4 3.4
2014-Oct-30 23:24N 49°02' W 123°16'5 6.5
2014-Oct-30 22:33N 49°07' W 123°18'6 6.0
2014-Oct-30 21:33N 49°13' W 123°18'7 7.2
2014-Oct-30 20:33N 49°20' W 123°14'3 2.6
2014-Oct-30 19:30N 49°23' W 123°16'0 0.0
2014-Oct-30 18:30N 49°23' W 123°16'3 2.8
2014-Oct-30 17:33N 49°20' W 123°16'3 3.1
2014-Oct-30 16:33N 49°17' W 123°14'3 2.7
2014-Oct-30 15:33N 49°20' W 123°13'4 4.2
2014-Oct-30 14:33N 49°17' W 123°09'1 0.7
2014-Oct-30 13:31N 49°16' W 123°08'0 0.0
2014-Oct-30 12:31N 49°16' W 123°08'0 0.0
2014-Oct-30 11:31N 49°16' W 123°08'0 0.0
2014-Oct-30 10:31N 49°16' W 123°08'0 0.0
2014-Oct-30 09:31N 49°16' W 123°08'0 0.0
2014-Oct-30 08:31N 49°16' W 123°08'0 0.0
2014-Oct-30 07:31N 49°16' W 123°08'0 0.0
2014-Oct-30 06:28N 49°16' W 123°08'0 0.0
2014-Oct-30 05:31N 49°16' W 123°08'0 0.0
2014-Oct-30 04:31N 49°16' W 123°08'0 0.0
2014-Oct-30 03:31N 49°16' W 123°08'0 0.0
2014-Oct-30 02:31N 49°16' W 123°08'0 0.0
2014-Oct-30 01:31N 49°16' W 123°08'0 0.0
2014-Oct-30 00:31N 49°16' W 123°08'0 0.0
2014-Oct-29 23:28N 49°16' W 123°08'0 0.0
2014-Oct-29 22:31N 49°16' W 123°08'0 0.0
2014-Oct-29 21:28N 49°16' W 123°08'5 5.1
2014-Oct-29 20:33N 49°20' W 123°13'3 3.2
2014-Oct-29 19:33N 49°18' W 123°15'6 5.3
2014-Oct-29 18:30N 49°12' W 123°18'1 0.6
2014-Oct-29 17:25N 49°12' W 123°18'2 2.3
2014-Oct-29 16:33N 49°10' W 123°17'1 0.8
2014-Oct-29 15:33N 49°09' W 123°18'3 2.9
2014-Oct-29 14:33N 49°08' W 123°14'2 1.5
2014-Oct-29 13:28N 49°07' W 123°11'0 0.0
2014-Oct-29 12:25N 49°07' W 123°11'0 0.0
2014-Oct-29 11:31N 49°07' W 123°11'0 0.0
2014-Oct-29 10:31N 49°07' W 123°11'0 0.0
2014-Oct-29 09:31N 49°07' W 123°11'0 0.0
2014-Oct-29 08:31N 49°07' W 123°11'0 0.0
2014-Oct-29 07:31N 49°07' W 123°11'0 0.0
2014-Oct-29 06:31N 49°07' W 123°11'0 0.0
2014-Oct-29 05:31N 49°07' W 123°11'0 0.0
2014-Oct-29 04:31N 49°07' W 123°11'0 0.0
2014-Oct-29 03:28N 49°07' W 123°11'0 0.0
2014-Oct-29 02:31N 49°07' W 123°11'0 0.0
2014-Oct-29 01:28N 49°07' W 123°11'0 0.0
2014-Oct-29 00:31N 49°07' W 123°11'0 0.0
2014-Oct-28 23:31N 49°07' W 123°11'2 1.8
2014-Oct-28 22:33N 49°08' W 123°14'3 2.8
2014-Oct-28 21:33N 49°09' W 123°18'4 3.5
2014-Oct-28 20:33N 49°13' W 123°18'7 7.4
2014-Oct-28 19:33N 49°19' W 123°11'8 7.6
2014-Oct-28 18:31N 49°18' W 122°59'1 1.1
2014-Oct-28 17:33N 49°18' W 122°58'1 1.1
2014-Oct-28 16:33N 49°18' W 122°56'2 2.1
2014-Oct-28 15:33N 49°20' W 122°54'1 1.4
2014-Oct-28 14:31N 49°20' W 122°57'0 0.0
2014-Oct-28 13:31N 49°20' W 122°57'0 0.0
2014-Oct-28 12:31N 49°20' W 122°57'0 0.0
2014-Oct-28 11:31N 49°20' W 122°57'0 0.0
2014-Oct-28 10:25N 49°20' W 122°57'0 0.0
2014-Oct-28 09:31N 49°20' W 122°57'0 0.0
2014-Oct-28 08:31N 49°20' W 122°57'0 0.0
2014-Oct-28 07:31N 49°20' W 122°57'0 0.0
2014-Oct-28 06:31N 49°20' W 122°57'0 0.0
2014-Oct-28 05:31N 49°20' W 122°57'0 0.0
2014-Oct-28 04:25N 49°20' W 122°57'0 0.0
2014-Oct-28 03:31N 49°20' W 122°57'0 0.0
2014-Oct-28 02:31N 49°20' W 122°57'0 0.0
2014-Oct-28 01:31N 49°20' W 122°57'0 0.0
2014-Oct-28 00:31N 49°20' W 122°57'0 0.0
2014-Oct-27 23:31N 49°20' W 122°57'0 0.0
2014-Oct-27 22:31N 49°20' W 122°57'1 1.4
2014-Oct-27 21:33N 49°20' W 122°55'3 2.5
2014-Oct-27 20:33N 49°18' W 122°56'5 4.5
2014-Oct-27 19:32N 49°18' W 123°03'0 0.0
2014-Oct-27 18:31N 49°18' W 123°03'2 1.9
2014-Oct-27 17:32N 49°17' W 123°06'1 1.5
2014-Oct-27 16:34N 49°18' W 123°05'2 2.0
2014-Oct-27 15:33N 49°19' W 123°08'2 2.1
2014-Oct-27 14:34N 49°17' W 123°08'0 0.4
2014-Oct-27 13:31N 49°16' W 123°08'0 0.0
2014-Oct-27 12:31N 49°16' W 123°08'0 0.0
2014-Oct-27 11:31N 49°16' W 123°08'0 0.0
2014-Oct-27 10:31N 49°16' W 123°08'0 0.0
2014-Oct-27 09:31N 49°16' W 123°08'0 0.0
2014-Oct-27 08:31N 49°16' W 123°08'0 0.0
2014-Oct-27 07:31N 49°16' W 123°08'0 0.0
2014-Oct-27 06:31N 49°16' W 123°08'0 0.0
2014-Oct-27 05:31N 49°16' W 123°08'0 0.0
2014-Oct-27 04:31N 49°16' W 123°08'0 0.0
2014-Oct-27 03:31N 49°16' W 123°08'0 0.0
2014-Oct-27 02:31N 49°16' W 123°08'0 0.0
2014-Oct-27 01:31N 49°16' W 123°08'0 0.0
2014-Oct-27 00:31N 49°16' W 123°08'0 0.0
2014-Oct-26 23:31N 49°16' W 123°08'0 0.0
2014-Oct-26 22:31N 49°16' W 123°08'0 0.4
2014-Oct-26 21:33N 49°17' W 123°08'2 2.3
2014-Oct-26 20:33N 49°17' W 123°05'1 1.5
2014-Oct-26 19:33N 49°18' W 123°07'2 2.4
2014-Oct-26 18:31N 49°20' W 123°10'2 2.0
2014-Oct-26 17:33N 49°18' W 123°10'1 1.1
2014-Oct-26 16:34N 49°17' W 123°11'2 1.8
2014-Oct-26 15:32N 49°16' W 123°08'0 0.0
2014-Oct-26 14:32N 49°16' W 123°08'0 0.0
2014-Oct-26 13:32N 49°16' W 123°08'0 0.0
2014-Oct-26 12:32N 49°16' W 123°08'0 0.0
2014-Oct-26 11:32N 49°16' W 123°08'0 0.0
2014-Oct-26 10:32N 49°16' W 123°08'0 0.0
2014-Oct-26 09:32N 49°16' W 123°08'0 0.0
2014-Oct-26 08:32N 49°16' W 123°08'0 0.0
2014-Oct-26 07:32N 49°16' W 123°08'0 0.0
2014-Oct-26 06:32N 49°16' W 123°08'0 0.0
2014-Oct-26 05:32N 49°16' W 123°08'0 0.0
2014-Oct-26 04:32N 49°16' W 123°08'0 0.0
2014-Oct-26 03:32N 49°16' W 123°08'0 0.0
2014-Oct-26 02:29N 49°16' W 123°08'0 0.0
2014-Oct-26 01:32N 49°16' W 123°08'2 1.8
2014-Oct-26 00:34N 49°18' W 123°10'4 4.1
2014-Oct-25 23:33N 49°17' W 123°16'7 6.9
2014-Oct-25 22:33N 49°16' W 123°27'7 7.2
2014-Oct-25 21:33N 49°15' W 123°37'8 8.3
2014-Oct-25 20:33N 49°13' W 123°50'5 2.3
2014-Oct-25 18:24N 49°13' W 123°57'0 0.0
2014-Oct-25 17:06N 49°13' W 123°57'0 0.0
2014-Oct-25 16:24N 49°13' W 123°57'0 0.0
2014-Oct-25 13:12N 49°13' W 123°57'0 0.0
2014-Oct-25 07:06N 49°13' W 123°57'0 0.0
2014-Oct-25 04:03N 49°13' W 123°57'0 0.0
2014-Oct-25 03:09N 49°13' W 123°57'0 0.0
2014-Oct-25 02:33N 49°13' W 123°57'0 0.0
2014-Oct-25 01:15N 49°13' W 123°57'0 0.0
2014-Oct-25 00:24N 49°13' W 123°57'0 0.0
2014-Oct-24 23:24N 49°13' W 123°57'0 0.0
2014-Oct-24 22:30N 49°13' W 123°57'0 0.0
2014-Oct-24 20:24N 49°13' W 123°57'0 0.0
2014-Oct-24 17:24N 49°13' W 123°57'0 0.0
2014-Oct-24 15:12N 49°13' W 123°57'0 0.0
2014-Oct-24 05:30N 49°13' W 123°57'0 0.0
2014-Oct-24 04:30N 49°13' W 123°57'0 0.0
2014-Oct-24 03:30N 49°13' W 123°57'0 0.0
2014-Oct-24 02:24N 49°13' W 123°57'0 0.0
2014-Oct-24 01:30N 49°13' W 123°57'0 0.0
2014-Oct-24 00:30N 49°13' W 123°57'0 0.0
2014-Oct-23 22:30N 49°13' W 123°57'0 0.0
2014-Oct-23 03:06N 49°13' W 123°57'0 0.0
2014-Oct-23 01:30N 49°13' W 123°57'0 0.0
2014-Oct-23 00:30N 49°13' W 123°57'0 0.0
2014-Oct-22 23:24N 49°13' W 123°57'0 0.0
2014-Oct-22 22:30N 49°13' W 123°57'0 0.0
2014-Oct-22 20:30N 49°13' W 123°57'0 0.0
2014-Oct-22 17:30N 49°13' W 123°57'0 0.0
2014-Oct-22 12:18N 49°13' W 123°57'0 0.0
2014-Oct-22 11:30N 49°13' W 123°57'0 0.0
2014-Oct-22 10:30N 49°13' W 123°57'0 0.0
2014-Oct-22 09:24N 49°13' W 123°57'0 0.0
2014-Oct-22 08:30N 49°13' W 123°57'0 0.0
2014-Oct-22 07:18N 49°13' W 123°57'0 0.0
2014-Oct-22 05:30N 49°13' W 123°57'0 0.0
2014-Oct-22 04:24N 49°13' W 123°57'0 0.0
2014-Oct-22 03:24N 49°13' W 123°57'0 0.0
2014-Oct-22 01:12N 49°13' W 123°57'0 0.0
2014-Oct-21 23:18N 49°13' W 123°57'  

Dump ship's entire track history